Página principal
METAR-TAF:

METAR-TAF

Aeroportos :

Georgetown, Ascensão

latitude: 07-58S, longitude: 014-24W, altura: 86 m

Observação actual do tempo

O boletim foi feito há 24 minutos, às 14:50 UTC
Vento 17 kt de sudeste
Temperatura 28°C
Humidade 66%
Pressão 1013 hPa
Visibilidade 10 km ou mais
Poucas nuvensa uma altura de 1900 ft

METAR: FHAW 161450Z 13017KT 9999 FEW019 28/21 Q1013 BLU

Hora: 15:14 (15:14 UTC)


TAF: em falta

Observações e previsões do tempo de mais de 4000 aeroportos (mensagens METAR e TAF).

As estações disponíveis são os pontos amarelos e vermelhos sobre o mapa.

Mova o rato sobre o mapa para ver o nome da estação.

Depois clique no ponto para visualizar as observações e previsões meteorológicas.

Para alterar o mapa : clique nos botões verdes com uma cruz preta para aumentar o zoom; no botão verde com uma pitada de zoom; ou nas setas verdes para mapas adjacentes.


METAR-TAF: